createdAt,value
2023-04-12T07:15:36.882Z,8.55
2023-04-12T07:16:36.728Z,8.56
2023-04-12T07:17:36.711Z,8.64
2023-04-12T07:18:36.596Z,8.67
2023-04-12T07:19:36.573Z,8.60
2023-04-12T07:20:36.593Z,8.69
2023-04-12T07:21:36.487Z,8.74
2023-04-12T07:22:36.459Z,8.91
2023-04-12T07:23:36.409Z,8.95
2023-04-12T07:24:36.376Z,9.02
2023-04-12T07:25:36.358Z,9.14
2023-04-12T07:26:36.366Z,9.18
2023-04-12T07:27:36.271Z,9.21
2023-04-12T07:28:36.283Z,9.23
2023-04-12T07:29:36.197Z,9.39
2023-04-12T07:30:36.229Z,9.43
2023-04-12T07:31:36.409Z,9.37
2023-04-12T07:32:36.146Z,9.55
2023-04-12T07:33:36.289Z,9.56
2023-04-12T07:34:36.145Z,9.54
2023-04-12T07:35:36.014Z,9.61
2023-04-12T07:36:36.055Z,9.61
2023-04-12T07:37:35.939Z,9.74
2023-04-12T07:38:35.895Z,9.82
2023-04-12T07:39:35.881Z,9.92
2023-04-12T07:40:35.827Z,10.04
2023-04-12T07:41:35.791Z,10.01
2023-04-12T07:42:35.817Z,10.12
2023-04-12T07:43:35.728Z,10.19
2023-04-12T07:44:38.455Z,10.20
2023-04-12T07:45:35.679Z,10.31
2023-04-12T07:46:35.648Z,10.23
2023-04-12T07:47:35.680Z,10.31
2023-04-12T07:48:36.208Z,10.44
2023-04-12T07:49:35.565Z,10.53
2023-04-12T07:50:35.484Z,10.57
2023-04-12T07:51:35.454Z,10.56
2023-04-12T07:52:35.427Z,10.63
2023-04-12T07:53:35.396Z,10.61
2023-04-12T07:54:35.415Z,10.54
2023-04-12T07:55:35.566Z,10.60
2023-04-12T07:56:35.295Z,10.64
2023-04-12T07:57:35.258Z,10.63
2023-04-12T07:58:35.235Z,10.67
2023-04-12T07:59:35.195Z,10.75
2023-04-12T08:00:35.205Z,10.76
2023-04-12T08:01:35.371Z,10.78
2023-04-12T08:02:35.179Z,10.87
2023-04-12T08:03:35.255Z,10.76
2023-04-12T08:04:35.027Z,10.79
2023-04-12T08:05:35.034Z,10.86
2023-04-12T08:06:34.954Z,10.79
2023-04-12T08:07:34.919Z,10.78
2023-04-12T08:08:34.882Z,10.79
2023-04-12T08:09:34.914Z,10.84
2023-04-12T08:10:34.888Z,10.94
2023-04-12T08:11:34.843Z,10.90
2023-04-12T08:12:34.765Z,10.94
2023-04-12T08:13:34.724Z,11.04
2023-04-12T08:14:34.747Z,11.04
2023-04-12T08:15:34.691Z,11.12
2023-04-12T08:16:34.692Z,11.12
2023-04-12T08:17:34.672Z,11.11
2023-04-12T08:18:34.552Z,11.17
2023-04-12T08:19:34.567Z,11.22
2023-04-12T08:20:34.486Z,11.17
2023-04-12T08:21:34.442Z,11.18
2023-04-12T08:22:34.446Z,11.19
2023-04-12T08:23:34.392Z,11.27
2023-04-12T08:24:34.358Z,11.27
2023-04-12T08:25:34.421Z,11.35
2023-04-12T08:26:34.279Z,11.44
2023-04-12T08:27:34.247Z,11.50
2023-04-12T08:28:34.217Z,11.48
2023-04-12T08:29:34.265Z,11.44
2023-04-12T08:30:34.150Z,11.55
2023-04-12T08:31:34.197Z,11.60
2023-04-12T08:32:34.111Z,11.68
2023-04-12T08:33:34.055Z,11.60
2023-04-12T08:34:34.020Z,11.66
2023-04-12T08:35:34.007Z,11.68
2023-04-12T08:36:33.951Z,11.69
2023-04-12T08:37:33.982Z,11.72
2023-04-12T08:38:45.106Z,11.73
2023-04-12T08:39:33.855Z,11.66
2023-04-12T08:40:33.821Z,11.73
2023-04-12T08:41:33.786Z,11.70
2023-04-12T08:42:34.254Z,11.81
2023-04-12T08:43:33.780Z,11.86
2023-04-12T08:44:33.685Z,11.87
2023-04-12T08:45:33.658Z,11.95
2023-04-12T08:46:33.671Z,12.09
2023-04-12T08:47:33.641Z,12.20
2023-04-12T08:48:33.719Z,12.28
2023-04-12T08:49:33.574Z,12.27
2023-04-12T08:50:33.492Z,12.32
2023-04-12T08:51:33.470Z,12.37
2023-04-12T08:52:33.426Z,12.35
2023-04-12T08:53:33.414Z,12.42
2023-04-12T08:54:33.369Z,12.36
2023-04-12T08:55:33.380Z,12.43
2023-04-12T08:56:33.351Z,12.43
2023-04-12T08:57:33.279Z,12.42
2023-04-12T08:58:33.233Z,12.47
2023-04-12T08:59:33.210Z,12.58
2023-04-12T09:00:33.224Z,12.67
2023-04-12T09:01:33.207Z,12.79
2023-04-12T09:02:33.180Z,12.76
2023-04-12T09:03:33.824Z,12.91
2023-04-12T09:04:33.115Z,12.90
2023-04-12T09:05:33.006Z,12.95
2023-04-12T09:06:32.969Z,12.90
2023-04-12T09:07:33.109Z,12.91
2023-04-12T09:08:32.902Z,12.98
2023-04-12T09:09:32.880Z,13.01
2023-04-12T09:10:32.850Z,13.03
2023-04-12T09:11:32.812Z,13.05
2023-04-12T09:12:32.783Z,13.19
2023-04-12T09:13:32.836Z,13.22
2023-04-12T09:14:32.706Z,13.20
2023-04-12T09:15:32.678Z,13.18
2023-04-12T09:16:32.702Z,13.28
2023-04-12T09:17:32.621Z,13.27
2023-04-12T09:18:32.589Z,13.33
2023-04-12T09:19:32.634Z,13.30
2023-04-12T09:20:32.536Z,13.28
2023-04-12T09:21:32.499Z,13.33
2023-04-12T09:22:32.445Z,13.37
2023-04-12T09:23:32.432Z,13.33
2023-04-12T09:24:32.388Z,13.38
2023-04-12T09:25:32.435Z,13.35
2023-04-12T09:26:32.334Z,13.42
2023-04-12T09:27:32.758Z,13.41
2023-04-12T09:28:32.259Z,13.52
2023-04-12T09:29:32.232Z,13.46
2023-04-12T09:30:32.207Z,13.50
2023-04-12T09:31:32.336Z,13.49
2023-04-12T09:32:32.119Z,13.54
2023-04-12T09:33:32.098Z,13.65
2023-04-12T09:34:32.132Z,13.70
2023-04-12T09:35:32.112Z,13.62
2023-04-12T09:36:32.046Z,13.63
2023-04-12T09:37:32.042Z,13.60
2023-04-12T09:38:31.964Z,13.65
2023-04-12T09:39:31.931Z,13.67
2023-04-12T09:40:31.899Z,13.75
2023-04-12T09:41:31.860Z,13.78
2023-04-12T09:42:34.462Z,13.78
2023-04-12T09:43:32.146Z,13.72
2023-04-12T09:44:31.809Z,13.71
2023-04-12T09:45:31.724Z,13.75
2023-04-12T09:46:31.744Z,13.95
2023-04-12T09:47:31.696Z,13.90
2023-04-12T09:48:31.659Z,14.04
2023-04-12T09:49:31.646Z,14.07
2023-04-12T09:50:31.567Z,14.10
2023-04-12T09:51:31.527Z,14.05
2023-04-12T09:52:32.410Z,14.10
2023-04-12T09:53:31.455Z,14.08
2023-04-12T09:54:31.433Z,14.08
2023-04-12T09:55:31.583Z,14.12
2023-04-12T09:56:31.361Z,14.14
2023-04-12T09:57:31.347Z,14.07
2023-04-12T09:58:31.745Z,14.25
2023-04-12T09:59:31.293Z,14.07
2023-04-12T10:00:31.260Z,14.17
2023-04-12T10:01:31.285Z,14.10
2023-04-12T10:02:31.329Z,14.04
2023-04-12T10:03:31.323Z,13.99
2023-04-12T10:04:31.227Z,14.04
2023-04-12T10:05:31.420Z,14.07
2023-04-12T10:06:31.041Z,14.07
2023-04-12T10:07:31.070Z,14.07
2023-04-12T10:08:30.982Z,14.17
2023-04-12T10:09:30.987Z,14.25
2023-04-12T10:10:30.923Z,14.35
2023-04-12T10:11:30.881Z,14.20
2023-04-12T10:12:30.875Z,14.35
2023-04-12T10:13:30.873Z,14.37
2023-04-12T10:14:30.789Z,14.37
2023-04-12T10:15:30.774Z,14.35
2023-04-12T10:16:30.801Z,14.41
2023-04-12T10:17:30.705Z,14.48
2023-04-12T10:18:30.664Z,14.43
2023-04-12T10:19:30.700Z,14.41
2023-04-12T10:20:30.603Z,14.44
2023-04-12T10:21:30.596Z,14.53
2023-04-12T10:22:30.561Z,14.48
2023-04-12T10:23:30.510Z,14.53
2023-04-12T10:24:30.497Z,14.47
2023-04-12T10:25:30.524Z,14.45
2023-04-12T10:26:30.437Z,14.44
2023-04-12T10:27:30.391Z,14.47
2023-04-12T10:28:30.385Z,14.69
2023-04-12T10:29:30.322Z,14.78
2023-04-12T10:30:30.283Z,14.92
2023-04-12T10:31:30.374Z,14.92
2023-04-12T10:32:30.285Z,14.91
2023-04-12T10:33:30.225Z,15.03
2023-04-12T10:34:30.197Z,15.06
2023-04-12T10:35:30.187Z,15.04
2023-04-12T10:36:30.199Z,15.07
2023-04-12T10:37:30.133Z,15.04
2023-04-12T10:38:30.053Z,15.10
2023-04-12T10:39:30.009Z,15.09
2023-04-12T10:40:29.995Z,15.09
2023-04-12T10:41:29.988Z,15.09
2023-04-12T10:42:29.921Z,15.11
2023-04-12T10:43:29.956Z,15.14
2023-04-12T10:44:29.862Z,15.10
2023-04-12T10:45:29.818Z,15.19
2023-04-12T10:46:29.921Z,15.18
2023-04-12T10:47:29.938Z,15.18
2023-04-12T10:48:29.805Z,15.27
2023-04-12T10:49:29.783Z,15.31
2023-04-12T10:50:29.752Z,15.36
2023-04-12T10:51:29.655Z,15.31
2023-04-12T10:52:29.614Z,15.36
2023-04-12T10:53:29.572Z,15.43
2023-04-12T10:54:29.576Z,15.35
2023-04-12T10:55:29.657Z,15.31
2023-04-12T10:56:31.586Z,15.33
2023-04-12T10:57:29.455Z,15.35
2023-04-12T10:58:29.474Z,15.40
2023-04-12T10:59:41.083Z,15.36
2023-04-12T11:00:29.435Z,15.31
2023-04-12T11:01:29.549Z,15.22
2023-04-12T11:02:29.570Z,15.15
2023-04-12T11:03:29.353Z,15.15
2023-04-12T11:04:29.347Z,15.17
2023-04-12T11:05:29.210Z,15.17
2023-04-12T11:06:29.189Z,15.28
2023-04-12T11:07:29.213Z,15.37
2023-04-12T11:08:29.136Z,15.43
2023-04-12T11:09:29.075Z,15.27
2023-04-12T11:10:29.040Z,15.40
2023-04-12T11:11:29.042Z,15.44
2023-04-12T11:12:28.993Z,15.40
2023-04-12T11:13:29.465Z,15.39
2023-04-12T11:14:28.928Z,15.29
2023-04-12T11:15:29.397Z,15.44
2023-04-12T11:16:28.899Z,15.51
2023-04-12T11:17:28.897Z,15.55
2023-04-12T11:18:28.922Z,15.67
2023-04-12T11:19:28.861Z,15.72
2023-04-12T11:20:28.750Z,15.77
2023-04-12T11:21:28.735Z,15.83
2023-04-12T11:22:29.465Z,15.90
2023-04-12T11:23:28.734Z,15.90
2023-04-12T11:24:29.430Z,15.92
2023-04-12T11:25:28.842Z,16.04
2023-04-12T11:26:28.566Z,16.17
2023-04-12T11:27:28.524Z,16.42
2023-04-12T11:28:30.357Z,16.46
2023-04-12T11:29:28.507Z,16.60
2023-04-12T11:30:28.460Z,16.78
2023-04-12T11:31:28.474Z,16.89
2023-04-12T11:32:29.330Z,16.90
2023-04-12T11:33:28.357Z,17.02
2023-04-12T11:34:28.343Z,17.16
2023-04-12T11:35:28.291Z,17.14
2023-04-12T11:36:28.254Z,17.27
2023-04-12T11:37:28.263Z,17.42
2023-04-12T11:38:28.180Z,17.68
2023-04-12T11:39:29.098Z,17.85
2023-04-12T11:40:28.130Z,17.72
2023-04-12T11:41:28.098Z,17.74
2023-04-12T11:42:28.066Z,17.80
2023-04-12T11:43:28.090Z,17.80
2023-04-12T11:44:28.010Z,17.67
2023-04-12T11:45:27.989Z,17.70
2023-04-12T11:46:27.980Z,17.79
2023-04-12T11:47:28.030Z,17.98
2023-04-12T11:48:27.893Z,18.07
2023-04-12T11:49:27.918Z,17.97
2023-04-12T11:50:27.841Z,17.87
2023-04-12T11:51:29.914Z,18.08
2023-04-12T11:52:27.843Z,18.25
2023-04-12T11:53:27.753Z,18.45
2023-04-12T11:54:27.723Z,18.35
2023-04-12T11:55:27.757Z,18.29
2023-04-12T11:56:27.670Z,18.33
2023-04-12T11:57:27.642Z,18.26
2023-04-12T11:58:27.613Z,18.07
2023-04-12T11:59:27.583Z,17.92
2023-04-12T12:00:27.552Z,17.98
2023-04-12T12:01:27.573Z,18.07
2023-04-12T12:02:31.705Z,17.95
2023-04-12T12:03:27.594Z,18.01
2023-04-12T12:04:27.596Z,18.10
2023-04-12T12:05:27.594Z,18.13
2023-04-12T12:06:27.538Z,18.35
2023-04-12T12:07:27.677Z,18.60
2023-04-12T12:08:27.333Z,18.80
2023-04-12T12:09:27.349Z,18.92
2023-04-12T12:10:43.698Z,18.63
2023-04-12T12:11:27.260Z,18.92
2023-04-12T12:12:27.270Z,18.88
2023-04-12T12:13:27.207Z,18.96
2023-04-12T12:14:27.174Z,19.00
2023-04-12T12:15:27.221Z,19.08
2023-04-12T12:16:27.148Z,18.89
2023-04-12T12:17:27.134Z,18.80
2023-04-12T12:18:27.056Z,18.63
2023-04-12T12:19:27.173Z,18.84
2023-04-12T12:20:27.002Z,18.95
2023-04-12T12:21:26.974Z,18.99
2023-04-12T12:22:26.951Z,18.75
2023-04-12T12:23:26.976Z,18.62
2023-04-12T12:24:26.892Z,18.45
2023-04-12T12:25:26.938Z,18.52
2023-04-12T12:26:26.848Z,18.62
2023-04-12T12:27:26.822Z,18.45
2023-04-12T12:28:26.793Z,18.52
2023-04-12T12:29:26.753Z,18.59
2023-04-12T12:30:26.847Z,18.44
2023-04-12T12:31:26.774Z,18.55
2023-04-12T12:32:26.732Z,18.59
2023-04-12T12:33:38.901Z,18.50
2023-04-12T12:34:26.636Z,18.59
2023-04-12T12:35:26.609Z,18.59
2023-04-12T12:36:26.625Z,18.60
2023-04-12T12:37:26.549Z,18.71
2023-04-12T12:38:32.157Z,18.53
2023-04-12T12:39:26.491Z,18.37
2023-04-12T12:40:26.489Z,18.41
2023-04-12T12:41:26.445Z,18.40
2023-04-12T12:42:26.456Z,18.53
2023-04-12T12:43:26.421Z,18.58
2023-04-12T12:44:26.365Z,18.68
2023-04-12T12:45:26.337Z,18.78
2023-04-12T12:46:31.495Z,18.88
2023-04-12T12:47:27.035Z,18.95
2023-04-12T12:48:26.398Z,18.74
2023-04-12T12:49:26.234Z,18.73
2023-04-12T12:50:26.209Z,18.75
2023-04-12T12:51:26.221Z,18.83
2023-04-12T12:52:26.158Z,18.89
2023-04-12T12:53:26.130Z,19.12
2023-04-12T12:55:26.188Z,19.39
2023-04-12T12:56:26.043Z,19.15
2023-04-12T12:57:26.008Z,19.16
2023-04-12T12:58:25.992Z,19.15
2023-04-12T12:59:26.202Z,19.21
2023-04-12T13:00:25.946Z,19.22
2023-04-12T13:01:26.011Z,19.19
2023-04-12T13:02:25.962Z,19.14
2023-04-12T13:03:26.044Z,18.90
2023-04-12T13:04:25.998Z,18.75
2023-04-12T13:05:25.883Z,18.66
2023-04-12T13:06:25.868Z,18.58
2023-04-12T13:07:26.009Z,18.40
2023-04-12T13:08:25.721Z,18.31
2023-04-12T13:09:25.717Z,18.07
2023-04-12T13:10:25.709Z,18.01
2023-04-12T13:11:25.719Z,17.83
2023-04-12T13:12:25.606Z,17.83
2023-04-12T13:13:25.581Z,17.68
2023-04-12T13:14:25.597Z,17.68
2023-04-12T13:15:25.594Z,17.59
2023-04-12T13:16:26.923Z,17.42
2023-04-12T13:17:25.580Z,17.33
2023-04-12T13:18:25.453Z,17.30
2023-04-12T13:19:25.601Z,17.30
2023-04-12T13:20:25.391Z,17.29
2023-04-12T13:21:25.366Z,17.23
2023-04-12T13:22:25.351Z,17.24
2023-04-12T13:23:25.368Z,17.08
2023-04-12T13:24:25.287Z,17.06
2023-04-12T13:25:25.260Z,17.24
2023-04-12T13:26:25.220Z,17.26
2023-04-12T13:27:25.201Z,17.29
2023-04-12T13:28:25.178Z,17.39
2023-04-12T13:29:25.220Z,17.51
2023-04-12T13:30:25.114Z,17.64
2023-04-12T13:31:25.105Z,17.57
2023-04-12T13:32:25.136Z,17.54
2023-04-12T13:33:25.073Z,17.65
2023-04-12T13:34:25.078Z,17.48
2023-04-12T13:35:24.995Z,17.38
2023-04-12T13:36:24.956Z,17.38
2023-04-12T13:37:24.926Z,17.33
2023-04-12T13:38:24.952Z,17.29
2023-04-12T13:39:24.864Z,17.29
2023-04-12T13:40:24.909Z,17.38
2023-04-12T13:41:24.844Z,17.42
2023-04-12T13:42:24.781Z,17.33
2023-04-12T13:43:24.746Z,17.06
2023-04-12T13:44:24.716Z,16.97
2023-04-12T13:45:24.771Z,16.97
2023-04-12T13:46:24.697Z,16.93
2023-04-12T13:47:24.650Z,16.96
2023-04-12T13:48:24.621Z,16.89
2023-04-12T13:49:24.588Z,16.83
2023-04-12T13:50:24.563Z,16.72
2023-04-12T13:51:24.617Z,16.69
2023-04-12T13:52:24.492Z,16.57
2023-04-12T13:53:24.482Z,16.50
2023-04-12T13:54:24.459Z,16.46
2023-04-12T13:55:24.434Z,16.39
2023-04-12T13:56:24.376Z,16.21
2023-04-12T13:57:24.409Z,16.13
2023-04-12T13:58:24.333Z,16.02
2023-04-12T13:59:24.304Z,15.97
2023-04-12T14:00:24.263Z,15.86
2023-04-12T14:01:24.279Z,15.83
2023-04-12T14:02:24.323Z,15.77
2023-04-12T14:03:24.207Z,15.72
2023-04-12T14:04:24.191Z,15.73
2023-04-12T14:05:24.300Z,15.70
2023-04-12T14:06:24.092Z,15.76
2023-04-12T14:07:24.116Z,15.76
2023-04-12T14:08:24.031Z,15.79
2023-04-12T14:09:23.999Z,15.73
2023-04-12T14:10:23.974Z,15.67
2023-04-12T14:11:23.941Z,15.65
2023-04-12T14:12:23.915Z,15.61
2023-04-12T14:13:23.925Z,15.59
2023-04-12T14:14:23.900Z,15.57
2023-04-12T14:15:23.814Z,15.61
2023-04-12T14:16:23.796Z,15.47
2023-04-12T14:17:23.886Z,15.47
2023-04-12T14:18:23.820Z,15.35
2023-04-12T14:19:23.755Z,15.35
2023-04-12T14:20:23.686Z,15.18
2023-04-12T14:21:24.418Z,15.09
2023-04-12T14:22:29.353Z,15.09
2023-04-12T14:23:26.066Z,15.10
2023-04-12T14:24:23.573Z,15.06
2023-04-12T14:25:23.573Z,15.09
2023-04-12T14:26:23.510Z,15.06
2023-04-12T14:27:23.454Z,15.10
2023-04-12T14:28:23.432Z,14.88
2023-04-12T14:29:23.397Z,14.81
2023-04-12T14:30:23.392Z,14.72
2023-04-12T14:31:23.510Z,14.60
2023-04-12T14:32:23.338Z,14.62
2023-04-12T14:33:23.281Z,14.62
2023-04-12T14:34:23.267Z,14.43
2023-04-12T14:35:23.218Z,14.30
2023-04-12T14:36:23.188Z,14.17
2023-04-12T14:42:16.706Z,13.89
2023-04-12T14:42:58.536Z,13.79
2023-04-12T14:43:58.613Z,13.83
2023-04-12T14:44:58.423Z,13.93
2023-04-12T14:45:58.428Z,13.95
2023-04-12T14:46:58.456Z,13.97
2023-04-12T14:47:58.379Z,13.93
2023-04-12T14:48:58.916Z,14.04
2023-04-12T14:49:58.273Z,14.10
2023-04-12T14:50:58.236Z,14.11
2023-04-12T14:51:59.617Z,14.17
2023-04-12T14:52:58.173Z,14.11
2023-04-12T14:53:58.322Z,14.07
2023-04-12T14:54:58.176Z,13.93
2023-04-12T14:55:58.182Z,13.95
2023-04-12T14:56:58.049Z,13.90
2023-04-12T14:57:58.022Z,14.03
2023-04-12T14:58:58.045Z,13.93
2023-04-12T14:59:58.025Z,13.93
2023-04-12T15:00:58.550Z,13.95
2023-04-12T15:01:57.985Z,13.87
2023-04-12T15:02:57.984Z,13.93
2023-04-12T15:03:58.397Z,13.83
2023-04-12T15:04:57.938Z,13.87
2023-04-12T15:05:57.774Z,13.78
2023-04-12T15:06:57.801Z,13.63
2023-04-12T15:07:57.723Z,13.57
2023-04-12T15:08:57.675Z,13.59
2023-04-12T15:09:57.640Z,13.52
2023-04-12T15:10:57.628Z,13.42
2023-04-12T15:11:57.591Z,13.42
2023-04-12T15:12:57.638Z,13.37
2023-04-12T15:13:57.671Z,13.27
2023-04-12T15:14:57.508Z,13.30
2023-04-12T15:15:57.479Z,13.31
2023-04-12T15:16:57.446Z,13.30
2023-04-12T15:17:57.475Z,13.41
2023-04-12T15:18:58.880Z,13.38
2023-04-12T15:19:57.344Z,13.35
2023-04-12T15:20:57.308Z,13.31
2023-04-12T15:21:57.353Z,13.22
2023-04-12T15:22:57.239Z,13.30
2023-04-12T15:23:57.404Z,13.33
2023-04-12T15:24:57.249Z,13.28
2023-04-12T15:25:57.148Z,13.27
2023-04-12T15:26:57.184Z,13.37
2023-04-12T15:27:57.102Z,13.31
2023-04-12T15:28:57.066Z,13.41
2023-04-12T15:29:57.027Z,13.50
2023-04-12T15:30:56.990Z,13.53
2023-04-12T15:31:57.153Z,13.60
2023-04-12T15:32:57.049Z,13.67
2023-04-12T15:33:57.118Z,13.78
2023-04-12T15:34:56.882Z,13.92
2023-04-12T15:35:56.830Z,13.92
2023-04-12T15:37:00.592Z,13.87
2023-04-12T15:37:56.781Z,13.83
2023-04-12T15:38:56.802Z,13.92
2023-04-12T15:39:56.723Z,13.93
2023-04-12T15:40:56.702Z,13.90
2023-04-12T15:41:56.667Z,13.86
2023-04-12T15:42:56.628Z,13.75
2023-04-12T15:43:56.806Z,13.68
2023-04-12T15:44:56.623Z,13.67
2023-04-12T15:45:56.805Z,13.63
2023-04-12T15:47:07.880Z,13.59
2023-04-12T15:47:56.480Z,13.62
2023-04-12T15:48:56.444Z,13.53
2023-04-12T15:49:56.412Z,13.41
2023-04-12T15:50:56.455Z,13.30
2023-04-12T15:51:56.346Z,13.33
2023-04-12T15:52:56.334Z,13.35
2023-04-12T15:53:56.501Z,13.27
2023-04-12T15:54:56.254Z,13.23
2023-04-12T15:55:56.213Z,13.31
2023-04-12T15:56:56.248Z,13.38
2023-04-12T15:57:56.160Z,13.33
2023-04-12T15:58:56.335Z,13.30
2023-04-12T15:59:56.104Z,13.23
2023-04-12T16:00:56.102Z,13.37
2023-04-12T16:01:56.142Z,13.47
2023-04-12T16:02:56.284Z,13.47
2023-04-12T16:03:56.131Z,13.49
2023-04-12T16:04:56.091Z,13.47
2023-04-12T16:05:55.973Z,13.46
2023-04-12T16:06:55.879Z,13.42
2023-04-12T16:07:55.856Z,13.31
2023-04-12T16:08:56.043Z,13.30
2023-04-12T16:09:55.798Z,13.27
2023-04-12T16:10:55.817Z,13.30
2023-04-12T16:11:55.731Z,13.28
2023-04-12T16:12:55.715Z,13.30
2023-04-12T16:13:55.701Z,13.30
2023-04-12T16:14:55.632Z,13.28
2023-04-12T16:15:55.658Z,13.25
2023-04-12T16:16:56.776Z,13.25
2023-04-12T16:17:55.766Z,13.30
2023-04-12T16:18:55.971Z,13.22
2023-04-12T16:19:55.507Z,13.25
2023-04-12T16:20:55.447Z,13.20
2023-04-12T16:21:55.419Z,13.25
2023-04-12T16:22:55.460Z,13.16
2023-04-12T16:23:55.345Z,13.13
2023-04-12T16:24:55.323Z,13.16
2023-04-12T16:25:55.284Z,13.25
2023-04-12T16:26:55.275Z,13.23
2023-04-12T16:27:55.235Z,13.23
2023-04-12T16:28:55.514Z,13.25
2023-04-12T16:29:55.166Z,13.00
2023-04-12T16:30:55.198Z,13.05
2023-04-12T16:31:55.161Z,13.03
2023-04-12T16:32:55.093Z,12.95
2023-04-12T16:33:55.145Z,12.87
2023-04-12T16:34:55.019Z,12.75
2023-04-12T16:35:54.990Z,12.60
2023-04-12T16:36:55.001Z,12.57
2023-04-12T16:37:54.973Z,12.73
2023-04-12T16:38:55.216Z,12.70
2023-04-12T16:39:54.996Z,12.68
2023-04-12T16:40:54.829Z,12.53
2023-04-12T16:41:54.806Z,12.50
2023-04-12T16:42:54.766Z,12.53
2023-04-12T16:43:54.726Z,12.46
2023-04-12T16:44:54.792Z,12.35
2023-04-12T16:45:54.677Z,12.39
2023-04-12T16:46:54.692Z,12.29
2023-04-12T16:47:54.647Z,12.24
2023-04-12T16:48:54.669Z,12.27
2023-04-12T16:49:54.533Z,12.29
2023-04-12T16:50:54.593Z,12.31
2023-04-12T16:51:54.465Z,12.32
2023-04-12T16:52:54.443Z,12.18
2023-04-12T16:53:54.411Z,12.20
2023-04-12T16:54:54.384Z,12.21
2023-04-12T16:55:56.141Z,12.28
2023-04-12T16:56:54.364Z,12.25
2023-04-12T16:57:54.282Z,12.25
2023-04-12T16:58:54.301Z,12.17
2023-04-12T16:59:54.221Z,12.18
2023-04-12T17:00:54.195Z,12.22
2023-04-12T17:01:54.207Z,12.09
2023-04-12T17:02:54.313Z,12.20
2023-04-12T17:03:54.167Z,12.09
2023-04-12T17:04:54.073Z,12.09
2023-04-12T17:05:54.023Z,12.10
2023-04-12T17:06:54.012Z,12.02
2023-04-12T17:08:02.748Z,11.91
2023-04-12T17:08:53.933Z,11.88
2023-04-12T17:09:53.884Z,11.78
2023-04-12T17:10:53.883Z,11.75
2023-04-12T17:11:53.813Z,11.80
2023-04-12T17:12:53.790Z,11.91
2023-04-12T17:13:53.832Z,11.75
2023-04-12T17:14:53.719Z,11.84
2023-04-12T17:15:53.756Z,11.81
2023-04-12T17:16:53.707Z,11.84
2023-04-12T17:17:53.691Z,11.78
2023-04-12T17:18:54.165Z,11.80
2023-04-12T17:19:53.712Z,11.77
2023-04-12T17:20:53.550Z,11.80
2023-04-12T17:21:53.505Z,11.78
2023-04-12T17:22:53.502Z,11.78
2023-04-12T17:23:53.453Z,11.83
2023-04-12T17:24:53.415Z,11.78
2023-04-12T17:25:53.492Z,11.87
2023-04-12T17:26:53.364Z,11.80
2023-04-12T17:27:53.324Z,11.86
2023-04-12T17:28:53.301Z,11.91
2023-04-12T17:29:53.365Z,11.94
2023-04-12T17:30:53.313Z,11.94
2023-04-12T17:31:55.029Z,11.94
2023-04-12T17:32:53.201Z,11.94
2023-04-12T17:33:53.218Z,11.95
2023-04-12T17:34:53.083Z,11.95
2023-04-12T17:35:53.064Z,11.86
2023-04-12T17:36:53.038Z,11.87
2023-04-12T17:37:53.001Z,11.80
2023-04-12T17:38:54.254Z,11.78
2023-04-12T17:39:52.973Z,11.80
2023-04-12T17:40:52.911Z,11.78
2023-04-12T17:41:52.860Z,11.69
2023-04-12T17:42:52.849Z,11.75
2023-04-12T17:43:52.910Z,11.70
2023-04-12T17:44:52.908Z,11.70
2023-04-12T17:45:52.786Z,11.69
2023-04-12T17:46:52.730Z,11.63
2023-04-12T17:47:52.758Z,11.60
2023-04-12T17:48:52.641Z,11.63
2023-04-12T17:49:52.728Z,11.60
2023-04-12T17:50:52.586Z,11.60
2023-04-12T17:51:52.592Z,11.52
2023-04-12T17:52:52.499Z,11.57
2023-04-12T17:53:52.459Z,11.50
2023-04-12T17:54:52.560Z,11.52
2023-04-12T17:55:52.464Z,11.47
2023-04-12T17:56:52.473Z,11.55
2023-04-12T17:57:52.357Z,11.43
2023-04-12T17:58:52.397Z,11.45
2023-04-12T17:59:52.341Z,11.57
2023-04-12T18:00:52.249Z,11.50
2023-04-12T18:01:52.324Z,11.48
2023-04-12T18:02:52.327Z,11.52
2023-04-12T18:03:52.386Z,11.54
2023-04-12T18:04:52.131Z,11.48
2023-04-12T18:05:52.223Z,11.52
2023-04-12T18:06:52.074Z,11.52
2023-04-12T18:07:52.042Z,11.44
2023-04-12T18:08:52.005Z,11.47
2023-04-12T18:09:51.947Z,11.52
2023-04-12T18:10:51.911Z,11.50
2023-04-12T18:11:52.079Z,11.55
2023-04-12T18:12:51.892Z,11.48
2023-04-12T18:13:51.824Z,11.55
2023-04-12T18:14:51.815Z,11.47
2023-04-12T18:15:51.844Z,11.43
2023-04-12T18:16:51.732Z,11.48
2023-04-12T18:17:51.777Z,11.50
2023-04-12T18:18:51.664Z,11.48
2023-04-12T18:19:51.627Z,11.47
2023-04-12T18:20:51.672Z,11.48
2023-04-12T18:21:51.570Z,11.54
2023-04-12T18:22:51.573Z,11.45
2023-04-12T18:23:51.576Z,11.48
2023-04-12T18:24:51.453Z,11.47
2023-04-12T18:25:51.445Z,11.55
2023-04-12T18:26:51.410Z,11.44
2023-04-12T18:27:51.356Z,11.51
2023-04-12T18:28:51.359Z,11.44
2023-04-12T18:29:51.381Z,11.45
2023-04-12T18:30:51.284Z,11.41
2023-04-12T18:31:51.340Z,11.50
2023-04-12T18:32:51.234Z,11.44
2023-04-12T18:33:51.211Z,11.44
2023-04-12T18:34:51.146Z,11.43
2023-04-12T18:35:51.208Z,11.48
2023-04-12T18:36:51.097Z,11.45
2023-04-12T18:37:51.036Z,11.45
2023-04-12T18:38:51.004Z,11.43
2023-04-12T18:39:53.071Z,11.48
2023-04-12T18:40:50.934Z,11.43
2023-04-12T18:41:51.138Z,11.45
2023-04-12T18:42:50.896Z,11.48
2023-04-12T18:43:50.827Z,11.48
2023-04-12T18:44:50.803Z,11.50
2023-04-12T18:45:50.839Z,11.48
2023-04-12T18:46:50.757Z,11.44
2023-04-12T18:47:50.875Z,11.45
2023-04-12T18:48:50.712Z,11.48
2023-04-12T18:49:50.647Z,11.48
2023-04-12T18:50:50.616Z,11.48
2023-04-12T18:51:50.669Z,11.50
2023-04-12T18:52:50.596Z,11.41
2023-04-12T18:53:50.667Z,11.45
2023-04-12T18:54:50.502Z,11.45
2023-04-12T18:55:50.479Z,11.47
2023-04-12T18:56:50.481Z,11.47
2023-04-12T18:57:50.416Z,11.43
2023-04-12T18:58:55.140Z,11.47
2023-04-12T18:59:50.468Z,11.50
2023-04-12T19:00:50.310Z,11.48
2023-04-12T19:01:50.310Z,11.48
2023-04-12T19:02:50.254Z,11.50
2023-04-12T19:03:50.253Z,11.45
2023-04-12T19:04:50.170Z,11.51
2023-04-12T19:05:50.205Z,11.55
2023-04-12T19:06:50.082Z,11.47
2023-04-12T19:07:50.060Z,11.48
2023-04-12T19:08:50.012Z,11.51
2023-04-12T19:09:49.977Z,11.48
2023-04-12T19:10:49.962Z,11.44
2023-04-12T19:11:49.991Z,11.44
2023-04-12T19:12:49.874Z,11.50
2023-04-12T19:13:49.870Z,11.47
2023-04-12T19:14:49.810Z,11.45
2023-04-12T19:15:49.891Z,11.50
2023-04-12T19:16:49.756Z,11.47
2023-04-12T19:17:49.796Z,11.48
2023-04-12T19:18:49.688Z,11.47
2023-04-12T19:19:49.647Z,11.47
2023-04-12T19:20:49.711Z,11.47
2023-04-12T19:21:49.597Z,11.44
2023-04-12T19:22:49.574Z,11.47
2023-04-12T19:23:49.559Z,11.50
2023-04-12T19:24:49.540Z,11.48
2023-04-12T19:25:49.459Z,11.40
2023-04-12T19:26:49.556Z,11.41
2023-04-12T19:27:49.398Z,11.43
2023-04-12T19:28:49.345Z,11.44
2023-04-12T19:29:49.332Z,11.36
2023-04-12T19:30:49.311Z,11.36
2023-04-12T19:31:49.389Z,11.41
2023-04-12T19:32:49.338Z,11.33
2023-04-12T19:33:49.191Z,11.32
2023-04-12T19:34:49.151Z,11.36
2023-04-12T19:35:49.125Z,11.29
2023-04-12T19:36:49.113Z,11.30
2023-04-12T19:37:49.147Z,11.29
2023-04-12T19:38:49.821Z,11.30
2023-04-12T19:39:49.028Z,11.26
2023-04-12T19:40:49.026Z,11.26
2023-04-12T19:41:48.945Z,11.19
2023-04-12T19:42:48.930Z,11.26
2023-04-12T19:43:48.938Z,11.25
2023-04-12T19:44:48.928Z,11.22
2023-04-12T19:45:48.865Z,11.22
2023-04-12T19:46:48.855Z,11.26
2023-04-12T19:47:48.752Z,11.29
2023-04-12T19:48:48.690Z,11.30
2023-04-12T19:49:48.717Z,11.23
2023-04-12T19:50:48.642Z,11.18
2023-04-12T19:51:48.595Z,11.19
2023-04-12T19:52:48.566Z,11.12
2023-04-12T19:53:48.625Z,11.19
2023-04-12T19:54:48.509Z,11.19
2023-04-12T19:55:48.545Z,11.11
2023-04-12T19:56:48.462Z,11.12
2023-04-12T19:57:48.403Z,11.15
2023-04-12T19:58:48.362Z,11.15
2023-04-12T19:59:48.331Z,11.12
2023-04-12T20:00:48.331Z,11.14
2023-04-12T20:01:48.670Z,11.12
2023-04-12T20:02:48.400Z,11.15
2023-04-12T20:03:48.206Z,11.14
2023-04-12T20:04:48.160Z,11.14
2023-04-12T20:05:48.129Z,11.11
2023-04-12T20:06:48.115Z,11.10
2023-04-12T20:07:48.139Z,11.11
2023-04-12T20:08:48.039Z,11.15
2023-04-12T20:09:48.024Z,11.12
2023-04-12T20:10:48.034Z,11.11
2023-04-12T20:11:47.923Z,11.17
2023-04-12T20:12:47.926Z,11.18
2023-04-12T20:13:47.931Z,11.15